Time;durP1;ratioP1;P1;durP2;ratioP2;P2;SDS_P1;SDS_P2;PMS_P1;PMS_P2;Temp;Humidity;BMP_temperature;BMP_pressure;BME280_temperature;BME280_humidity;BME280_pressure;Samples;Min_cycle;Max_cycle;Signal;HPM_P1;HPM_P2
2022/11/27 00:01:48;;;;;;;2.63;1.30;;;19.50;57.40;;;;;;6245148;28;20071;-70
2022/11/27 00:04:48;;;;;;;2.42;1.38;;;19.50;57.40;;;;;;6231292;28;20025;-70
2022/11/27 00:07:49;;;;;;;2.60;1.50;;;19.50;57.50;;;;;;6220530;28;20378;-71
2022/11/27 00:10:50;;;;;;;2.20;1.20;;;19.40;57.50;;;;;;6228109;28;20109;-70
2022/11/27 00:13:51;;;;;;;2.58;1.40;;;19.50;57.50;;;;;;6223814;28;20512;-70
2022/11/27 00:16:52;;;;;;;3.00;1.40;;;19.50;57.50;;;;;;6244755;28;20037;-70
2022/11/27 00:19:52;;;;;;;2.50;1.23;;;19.50;57.50;;;;;;6232933;28;20030;-71
2022/11/27 00:22:53;;;;;;;2.70;1.38;;;19.50;57.50;;;;;;6220085;28;20034;-70
2022/11/27 00:25:54;;;;;;;2.40;1.50;;;19.40;57.40;;;;;;6238820;28;20496;-71
2022/11/27 00:28:55;;;;;;;2.30;1.38;;;19.50;57.50;;;;;;6241692;28;20034;-70
2022/11/27 00:31:56;;;;;;;3.03;1.50;;;19.50;57.50;;;;;;6220219;28;20444;-70
2022/11/27 00:34:56;;;;;;;2.55;1.40;;;19.50;57.50;;;;;;6219522;28;20030;-70
2022/11/27 00:37:57;;;;;;;3.20;1.40;;;19.50;57.50;;;;;;6220095;28;20053;-71
2022/11/27 00:41:04;;;;;;;2.20;1.52;;;19.50;57.50;;;;;;6237005;28;20025;-71
2022/11/27 00:44:05;;;;;;;2.65;1.40;;;19.50;57.60;;;;;;6242738;28;20026;-71
2022/11/27 00:47:06;;;;;;;2.75;1.45;;;19.50;57.50;;;;;;6219526;28;20028;-70
2022/11/27 00:50:07;;;;;;;2.72;1.45;;;19.50;57.50;;;;;;6229003;28;20111;-70
2022/11/27 00:53:08;;;;;;;2.75;1.63;;;19.50;57.50;;;;;;6243406;28;20045;-71
2022/11/27 00:56:14;;;;;;;2.78;1.33;;;19.50;57.60;;;;;;6225784;28;20120;-70
2022/11/27 00:59:15;;;;;;;2.03;1.30;;;19.40;57.40;;;;;;6219626;28;20436;-70
2022/11/27 01:02:15;;;;;;;1.88;1.38;;;19.50;57.60;;;;;;6243581;28;20029;-70
2022/11/27 01:05:16;;;;;;;2.17;1.35;;;19.50;57.80;;;;;;6234876;28;20175;-71
2022/11/27 01:08:18;;;;;;;2.67;1.65;;;19.50;57.60;;;;;;6219098;28;20026;-70
2022/11/27 01:11:25;;;;;;;2.35;1.60;;;19.50;57.60;;;;;;6218963;28;20037;-71
2022/11/27 01:14:26;;;;;;;2.45;1.38;;;19.50;57.60;;;;;;6218928;28;20026;-70
2022/11/27 01:17:26;;;;;;;2.03;1.55;;;19.40;57.50;;;;;;6243504;28;20025;-70
2022/11/27 01:20:27;;;;;;;2.10;1.40;;;19.40;57.50;;;;;;6234991;28;20131;-70
2022/11/27 01:23:28;;;;;;;2.17;1.20;;;19.40;57.50;;;;;;6218527;28;20555;-70
2022/11/27 01:26:29;;;;;;;2.60;1.73;;;19.50;57.60;;;;;;6234413;28;20210;-70
2022/11/27 01:29:29;;;;;;;1.85;1.20;;;19.40;57.50;;;;;;6242882;28;20435;-71
2022/11/27 01:32:30;;;;;;;2.25;1.60;;;19.40;57.50;;;;;;6220401;28;20025;-70
2022/11/27 01:35:31;;;;;;;3.35;1.50;;;19.50;57.60;;;;;;6218617;28;20153;-71
2022/11/27 01:38:33;;;;;;;2.25;1.40;;;19.50;57.60;;;;;;6218171;28;20512;-70
2022/11/27 01:41:38;;;;;;;1.80;1.27;;;19.50;57.60;;;;;;6232783;28;20029;-70
2022/11/27 01:44:47;;;;;;;2.42;1.30;;;19.40;57.50;;;;;;6243585;28;20041;-70
2022/11/27 01:47:59;;;;;;;2.78;1.42;;;19.40;57.50;;;;;;6218913;28;20022;-70
2022/11/27 01:51:00;;;;;;;1.55;1.20;;;19.50;58.30;;;;;;6226437;28;20033;-70
2022/11/27 01:54:01;;;;;;;1.92;1.33;;;19.40;57.50;;;;;;6241632;28;20504;-70
2022/11/27 01:57:06;;;;;;;2.10;1.20;;;19.40;57.60;;;;;;6226706;28;20058;-70
2022/11/27 02:00:11;;;;;;;2.55;1.40;;;19.40;57.50;;;;;;6218022;28;20026;-70
2022/11/27 02:03:12;;;;;;;2.03;1.38;;;19.40;57.50;;;;;;6218356;28;20100;-71
2022/11/27 02:06:13;;;;;;;2.42;1.27;;;19.40;57.60;;;;;;6218349;28;20022;-70
2022/11/27 02:09:14;;;;;;;2.05;1.30;;;19.40;57.60;;;;;;6217862;28;20112;-71
2022/11/27 02:12:29;;;;;;;3.05;1.35;;;19.40;57.60;;;;;;6233772;28;20112;-71
2022/11/27 02:15:49;;;;;;;2.10;1.27;;;19.40;57.60;;;;;;6241792;28;20404;-71
2022/11/27 02:19:21;;;;;;;1.67;1.15;;;19.40;57.60;;;;;;6217867;28;20529;-71
2022/11/27 02:22:59;;;;;;;1.60;1.17;;;19.40;57.50;;;;;;6235997;28;20025;-70
2022/11/27 02:26:28;;;;;;;1.67;1.10;;;19.40;57.60;;;;;;6243814;28;20117;-70
2022/11/27 02:29:32;;;;;;;1.52;1.10;;;19.40;57.60;;;;;;6222323;28;20026;-70
2022/11/27 02:32:36;;;;;;;2.50;1.27;;;19.40;57.60;;;;;;6239006;28;20029;-70
2022/11/27 02:35:50;;;;;;;2.95;1.40;;;19.40;57.60;;;;;;6247174;28;20033;-70
2022/11/27 02:39:02;;;;;;;1.77;1.13;;;19.40;57.60;;;;;;6222402;28;20045;-70
2022/11/27 02:42:15;;;;;;;1.77;1.08;;;19.40;57.60;;;;;;6222415;28;20056;-71
2022/11/27 02:45:22;;;;;;;1.52;1.20;;;19.40;57.60;;;;;;6222280;28;20374;-71
2022/11/27 02:48:30;;;;;;;2.35;1.30;;;19.40;57.60;;;;;;6222320;28;20076;-71
2022/11/27 02:51:37;;;;;;;1.67;1.17;;;19.40;57.70;;;;;;6222365;28;20542;-70
2022/11/27 02:54:40;;;;;;;1.67;1.17;;;19.40;57.60;;;;;;6221864;28;20054;-71
2022/11/27 02:57:42;;;;;;;4.15;1.20;;;19.40;57.70;;;;;;6221904;28;20022;-70
2022/11/27 03:00:45;;;;;;;2.08;1.10;;;19.40;57.70;;;;;;6221968;28;20477;-70
2022/11/27 03:03:49;;;;;;;2.72;1.10;;;19.40;57.70;;;;;;6242897;28;20045;-71
2022/11/27 03:06:56;;;;;;;2.08;1.20;;;19.40;57.70;;;;;;6241688;28;20029;-70
2022/11/27 03:10:04;;;;;;;1.73;1.20;;;19.40;57.70;;;;;;6227846;28;20096;-71
2022/11/27 03:13:06;;;;;;;3.05;1.30;;;19.40;57.70;;;;;;6232029;28;20034;-71
2022/11/27 03:16:29;;;;;;;1.20;0.95;;;19.40;57.70;;;;;;6221945;28;20028;-70
2022/11/27 03:19:44;;;;;;;1.58;1.00;;;19.40;57.70;;;;;;6221678;28;20040;-70
2022/11/27 03:22:45;;;;;;;1.98;1.38;;;19.40;57.60;;;;;;6226118;28;20021;-70
2022/11/27 03:25:46;;;;;;;2.38;1.20;;;19.40;57.70;;;;;;6245142;28;20069;-70
2022/11/27 03:28:49;;;;;;;2.30;1.27;;;19.40;57.60;;;;;;6228371;28;20022;-71
2022/11/27 03:31:50;;;;;;;2.55;1.30;;;19.40;57.70;;;;;;6221697;28;20018;-71
2022/11/27 03:34:51;;;;;;;1.55;1.00;;;19.40;57.70;;;;;;6221243;28;20502;-71
2022/11/27 03:37:52;;;;;;;1.55;0.95;;;19.40;57.70;;;;;;6230829;28;20064;-72
2022/11/27 03:41:09;;;;;;;1.65;1.20;;;19.40;57.70;;;;;;6246176;28;20111;-71
2022/11/27 03:44:16;;;;;;;2.17;1.25;;;19.40;57.70;;;;;;6226907;28;20037;-71
2022/11/27 03:47:34;;;;;;;2.17;1.27;;;19.40;57.80;;;;;;6224155;28;20048;-70
2022/11/27 03:50:54;;;;;;;1.80;1.20;;;19.40;57.70;;;;;;6245081;28;20416;-71
2022/11/27 03:53:59;;;;;;;2.20;1.05;;;19.40;57.70;;;;;;6235602;28;20057;-71
2022/11/27 03:57:13;;;;;;;2.22;1.30;;;19.40;57.70;;;;;;6220514;28;20219;-71
2022/11/27 04:00:14;;;;;;;1.55;1.15;;;19.40;57.70;;;;;;6220512;28;20038;-71
2022/11/27 04:03:25;;;;;;;1.65;1.20;;;19.40;57.70;;;;;;6230012;28;20476;-71
2022/11/27 04:06:26;;;;;;;1.70;1.23;;;19.40;57.70;;;;;;6245042;28;20025;-71
2022/11/27 04:09:26;;;;;;;1.52;1.13;;;19.40;57.70;;;;;;6228712;28;20030;-71
2022/11/27 04:12:27;;;;;;;1.30;1.00;;;19.40;57.70;;;;;;6244257;28;20036;-71
2022/11/27 04:15:28;;;;;;;1.63;1.10;;;19.40;57.70;;;;;;6220623;28;20022;-70
2022/11/27 04:18:29;;;;;;;1.67;0.98;;;19.40;57.70;;;;;;6227479;28;20056;-70
2022/11/27 04:21:29;;;;;;;1.58;0.98;;;19.40;57.70;;;;;;6244635;28;20040;-71
2022/11/27 04:24:30;;;;;;;1.20;0.90;;;19.40;57.70;;;;;;6228119;28;20022;-70
2022/11/27 04:27:30;;;;;;;1.48;1.17;;;19.40;57.70;;;;;;6220150;28;20072;-70
2022/11/27 04:30:31;;;;;;;1.63;1.13;;;19.40;57.70;;;;;;6243667;28;20064;-70
2022/11/27 04:33:32;;;;;;;1.58;1.10;;;19.40;57.70;;;;;;6237158;28;20068;-70
2022/11/27 04:36:32;;;;;;;1.40;0.88;;;19.40;57.70;;;;;;6219661;28;20266;-71
2022/11/27 04:39:33;;;;;;;1.48;1.10;;;19.40;57.80;;;;;;6233997;28;20109;-70
2022/11/27 04:42:33;;;;;;;1.40;0.82;;;19.40;57.70;;;;;;6243988;28;20060;-71
2022/11/27 04:45:34;;;;;;;1.33;1.08;;;19.40;57.80;;;;;;6221032;28;20022;-70
2022/11/27 04:48:35;;;;;;;1.95;1.20;;;19.40;57.70;;;;;;6224744;28;20026;-70
2022/11/27 04:51:35;;;;;;;1.60;1.13;;;19.40;57.70;;;;;;6244404;28;20036;-71
2022/11/27 04:54:36;;;;;;;2.60;1.35;;;19.40;57.70;;;;;;6230212;28;20398;-70
2022/11/27 04:57:37;;;;;;;1.60;1.33;;;19.40;57.80;;;;;;6219098;28;20022;-70
2022/11/27 05:00:40;;;;;;;4.47;1.02;;;19.40;57.70;;;;;;6239921;28;20076;-70
2022/11/27 05:03:42;;;;;;;2.10;1.10;;;19.40;57.80;;;;;;6239801;28;20053;-70
2022/11/27 05:06:43;;;;;;;1.20;1.00;;;19.40;57.70;;;;;;6219118;28;20112;-70
2022/11/27 05:09:43;;;;;;;1.00;0.80;;;19.40;57.80;;;;;;6226535;28;20075;-71
2022/11/27 05:12:44;;;;;;;1.50;1.00;;;19.40;57.70;;;;;;6219209;28;20378;-70
2022/11/27 05:15:45;;;;;;;1.70;1.10;;;19.40;57.80;;;;;;6238363;28;20061;-70
2022/11/27 05:18:45;;;;;;;1.58;0.93;;;19.40;57.80;;;;;;6240585;28;20083;-70
2022/11/27 05:21:47;;;;;;;1.77;1.10;;;19.40;57.80;;;;;;6218818;28;20452;-71
2022/11/27 05:24:47;;;;;;;1.48;0.98;;;19.40;57.70;;;;;;6228708;28;20381;-71
2022/11/27 05:27:48;;;;;;;1.75;1.25;;;19.40;57.70;;;;;;6243096;28;20025;-71
2022/11/27 05:30:49;;;;;;;1.83;1.00;;;19.40;57.70;;;;;;6225210;28;20076;-70
2022/11/27 05:33:50;;;;;;;1.30;0.90;;;19.40;57.80;;;;;;6216665;28;20041;-70
2022/11/27 05:36:50;;;;;;;1.83;1.00;;;19.40;57.80;;;;;;6219292;28;20065;-71
2022/11/27 05:39:51;;;;;;;1.55;1.00;;;19.40;58.40;;;;;;6227257;28;20120;-70
2022/11/27 05:42:51;;;;;;;1.60;1.05;;;19.40;57.80;;;;;;6243232;28;20140;-71
2022/11/27 05:45:52;;;;;;;1.90;1.10;;;19.40;57.80;;;;;;6226703;28;20033;-71
2022/11/27 05:48:52;;;;;;;1.77;1.23;;;19.40;57.80;;;;;;6218879;28;20080;-70
2022/11/27 05:51:53;;;;;;;1.05;0.90;;;19.40;57.70;;;;;;6242664;28;20033;-71
2022/11/27 05:54:55;;;;;;;1.67;1.00;;;19.40;57.70;;;;;;6235529;28;20124;-71
2022/11/27 05:57:55;;;;;;;1.05;0.90;;;19.40;57.60;;;;;;6217966;28;20449;-70
2022/11/27 06:00:56;;;;;;;1.27;0.90;;;19.40;57.80;;;;;;6229905;28;20041;-71
2022/11/27 06:03:57;;;;;;;1.20;0.80;;;19.40;57.70;;;;;;6217949;28;20393;-71
2022/11/27 06:06:57;;;;;;;1.23;0.80;;;19.40;57.70;;;;;;6240635;28;20072;-71
2022/11/27 06:09:58;;;;;;;2.00;1.00;;;19.40;58.40;;;;;;6241731;28;20052;-70
2022/11/27 06:12:58;;;;;;;3.85;1.08;;;19.40;57.80;;;;;;6242766;28;20233;-71
2022/11/27 06:16:13;;;;;;;1.77;0.90;;;19.40;57.80;;;;;;6229229;28;20030;-70
2022/11/27 06:19:14;;;;;;;1.67;0.90;;;19.40;57.80;;;;;;6218566;28;20447;-70
2022/11/27 06:22:14;;;;;;;1.98;0.90;;;19.40;57.70;;;;;;6241033;28;20037;-70
2022/11/27 06:25:15;;;;;;;1.10;1.00;;;19.40;57.80;;;;;;6236171;28;20050;-71
2022/11/27 06:28:16;;;;;;;1.55;0.90;;;19.40;57.70;;;;;;6218081;28;20022;-70
2022/11/27 06:31:19;;;;;;;1.10;1.00;;;19.40;57.70;;;;;;6231038;28;20392;-71
2022/11/27 06:34:20;;;;;;;1.98;1.17;;;19.40;57.70;;;;;;6242354;28;20385;-70
2022/11/27 06:37:21;;;;;;;1.70;0.95;;;19.40;57.70;;;;;;6221009;28;20096;-71
2022/11/27 06:40:22;;;;;;;1.75;1.23;;;19.40;57.60;;;;;;6222321;28;20029;-70
2022/11/27 06:43:22;;;;;;;1.63;1.00;;;19.40;57.70;;;;;;6242034;28;20377;-70
2022/11/27 06:46:23;;;;;;;1.17;1.00;;;19.40;57.70;;;;;;6227768;28;20030;-71
2022/11/27 06:49:24;;;;;;;1.10;0.82;;;19.40;57.70;;;;;;6217914;28;20109;-71
2022/11/27 06:52:24;;;;;;;1.17;0.90;;;19.40;57.60;;;;;;6237712;28;20035;-70
2022/11/27 06:55:25;;;;;;;1.55;1.00;;;19.40;57.70;;;;;;6238466;28;20145;-70
2022/11/27 06:58:25;;;;;;;1.10;1.00;;;19.40;57.70;;;;;;6217827;28;20101;-71
2022/11/27 07:01:28;;;;;;;1.83;1.08;;;19.40;57.80;;;;;;6226961;28;20112;-71
2022/11/27 07:04:29;;;;;;;1.25;0.95;;;19.40;57.80;;;;;;6241680;28;20025;-71
2022/11/27 07:07:29;;;;;;;1.83;1.15;;;19.40;57.70;;;;;;6223091;28;20025;-70
2022/11/27 07:10:34;;;;;;;1.27;1.00;;;19.40;57.70;;;;;;6230952;28;20017;-71
2022/11/27 07:13:35;;;;;;;1.33;1.10;;;19.40;57.70;;;;;;6222590;28;20381;-70
2022/11/27 07:16:36;;;;;;;1.58;0.90;;;19.40;57.70;;;;;;6232172;28;20481;-70
2022/11/27 07:19:36;;;;;;;1.23;1.00;;;19.40;57.80;;;;;;6246548;28;20083;-71
2022/11/27 07:22:37;;;;;;;1.08;0.90;;;19.40;57.70;;;;;;6229409;28;20048;-70
2022/11/27 07:25:37;;;;;;;1.70;1.05;;;19.40;57.70;;;;;;6221692;28;20055;-71
2022/11/27 07:28:39;;;;;;;1.17;0.90;;;19.40;57.70;;;;;;6246309;28;20075;-70
2022/11/27 07:31:39;;;;;;;0.73;0.73;;;19.40;57.70;;;;;;6237297;28;20389;-71
2022/11/27 07:34:40;;;;;;;1.52;1.00;;;19.40;57.70;;;;;;6222154;28;20084;-71
2022/11/27 07:37:40;;;;;;;1.48;1.10;;;19.40;57.70;;;;;;6237967;28;20230;-70
2022/11/27 07:40:41;;;;;;;2.28;0.88;;;19.40;57.70;;;;;;6246923;28;20025;-70
2022/11/27 07:43:43;;;;;;;1.20;1.00;;;19.40;57.70;;;;;;6222321;28;20030;-71
2022/11/27 07:46:44;;;;;;;1.83;1.00;;;19.40;57.70;;;;;;6228643;28;20446;-70
2022/11/27 07:49:44;;;;;;;1.98;1.10;;;19.40;57.70;;;;;;6246451;28;20037;-70
2022/11/27 07:52:45;;;;;;;1.80;1.00;;;19.40;57.70;;;;;;6231632;28;20477;-70
2022/11/27 07:55:46;;;;;;;0.90;0.70;;;19.40;57.70;;;;;;6220870;28;20237;-70
2022/11/27 07:58:47;;;;;;;1.38;0.70;;;19.40;57.70;;;;;;6242654;28;20069;-70
2022/11/27 08:01:47;;;;;;;2.05;1.00;;;19.40;57.70;;;;;;6238864;28;20037;-71
2022/11/27 08:04:48;;;;;;;1.75;1.00;;;19.40;57.70;;;;;;6221227;28;20030;-71
2022/11/27 08:07:48;;;;;;;1.58;0.93;;;19.40;57.70;;;;;;6233614;28;20026;-70
2022/11/27 08:10:49;;;;;;;1.17;1.00;;;19.40;57.70;;;;;;6232211;28;20104;-70
2022/11/27 08:13:54;;;;;;;2.25;0.95;;;19.40;57.70;;;;;;6242115;28;20484;-71
2022/11/27 08:16:55;;;;;;;;;;;19.40;57.70;;;;;;6241177;28;20293;-70
2022/11/27 08:19:55;;;;;;;1.42;1.00;;;19.40;57.70;;;;;;6220351;28;19976;-71
2022/11/27 08:22:57;;;;;;;1.40;1.10;;;19.40;57.70;;;;;;6226893;28;20026;-70
2022/11/27 08:25:58;;;;;;;1.50;1.00;;;19.40;57.70;;;;;;6219818;28;20048;-70
2022/11/27 08:28:58;;;;;;;2.63;0.85;;;19.40;57.70;;;;;;6207397;28;20030;-71
2022/11/27 08:31:59;;;;;;;1.40;0.82;;;19.40;57.70;;;;;;6220753;28;20025;-70
2022/11/27 08:35:01;;;;;;;1.08;0.90;;;19.40;57.70;;;;;;6240122;28;20037;-70
2022/11/27 08:38:02;;;;;;;2.38;1.10;;;19.40;57.70;;;;;;6214231;28;20038;-70
2022/11/27 08:41:04;;;;;;;1.20;0.70;;;19.40;57.70;;;;;;6215926;28;20406;-70
2022/11/27 08:44:05;;;;;;;1.70;1.10;;;19.40;57.70;;;;;;6235072;28;20029;-70
2022/11/27 08:47:05;;;;;;;1.15;0.90;;;19.40;57.70;;;;;;6236582;28;20218;-70
2022/11/27 08:50:07;;;;;;;1.10;0.88;;;19.40;57.70;;;;;;6230178;28;20022;-70
2022/11/27 08:53:07;;;;;;;1.20;0.90;;;19.40;57.80;;;;;;6231473;28;20058;-71
2022/11/27 08:56:13;;;;;;;1.90;0.80;;;19.40;57.80;;;;;;6215329;28;20057;-68
2022/11/27 08:59:14;;;;;;;6.60;1.15;;;19.50;58.30;;;;;;6233305;28;20510;-68
2022/11/27 09:02:14;;;;;;;1.67;0.88;;;19.60;57.90;;;;;;6239837;28;20033;-70
2022/11/27 09:05:15;;;;;;;5.60;1.60;;;19.70;57.70;;;;;;6229828;28;20041;-70
2022/11/27 09:08:19;;;;;;;3.47;1.20;;;19.70;57.40;;;;;;6232574;28;20036;-68
2022/11/27 09:11:19;;;;;;;6.18;1.30;;;19.80;57.20;;;;;;6215965;28;20030;-68
2022/11/27 09:14:20;;;;;;;5.38;1.10;;;19.70;57.40;;;;;;6227884;28;20029;-68
2022/11/27 09:17:21;;;;;;;5.53;1.40;;;19.70;57.60;;;;;;6215929;28;20014;-69
2022/11/27 09:20:21;;;;;;;1.90;0.98;;;19.60;57.80;;;;;;6214925;28;20029;-69
2022/11/27 09:23:22;;;;;;;3.13;1.20;;;19.60;57.80;;;;;;6223230;28;20039;-69
2022/11/27 09:26:24;;;;;;;6.40;1.20;;;19.60;57.90;;;;;;6240975;28;20017;-69
2022/11/27 09:29:25;;;;;;;3.78;1.30;;;19.60;57.90;;;;;;6224692;28;20026;-69
2022/11/27 09:32:25;;;;;;;1.38;0.90;;;19.60;57.90;;;;;;6215587;28;20508;-69
2022/11/27 09:35:26;;;;;;;5.30;2.13;;;19.60;57.90;;;;;;6232401;28;20109;-69
2022/11/27 09:38:27;;;;;;;8.75;1.20;;;19.60;57.90;;;;;;6221189;28;20021;-69
2022/11/27 09:41:37;;;;;;;2.42;1.13;;;19.60;57.90;;;;;;6240203;28;20037;-69
2022/11/27 09:44:56;;;;;;;4.45;1.00;;;19.60;57.90;;;;;;6225099;28;20030;-69
2022/11/27 09:48:10;;;;;;;2.38;1.17;;;19.60;57.90;;;;;;6215225;28;20022;-69
2022/11/27 09:51:22;;;;;;;3.58;1.60;;;19.60;57.90;;;;;;6214881;28;20057;-69
2022/11/27 09:54:34;;;;;;;3.30;1.27;;;19.60;58.00;;;;;;6226269;28;20129;-69
2022/11/27 09:57:38;;;;;;;5.28;1.10;;;19.60;57.80;;;;;;6239744;28;20018;-69
2022/11/27 10:00:38;;;;;;;3.08;1.17;;;19.60;57.80;;;;;;6218159;28;20489;-69
2022/11/27 10:03:41;;;;;;;7.22;1.13;;;19.60;57.90;;;;;;6218504;28;20022;-69
2022/11/27 10:07:01;;;;;;;1.85;1.20;;;19.60;57.90;;;;;;6220362;28;20060;-69
2022/11/27 10:10:20;;;;;;;2.42;1.17;;;19.60;57.90;;;;;;6214367;28;20030;-69
2022/11/27 10:13:44;;;;;;;2.17;1.08;;;19.60;57.90;;;;;;6215516;28;20484;-69
2022/11/27 10:17:02;;;;;;;1.63;0.95;;;19.60;57.90;;;;;;6239900;28;20032;-69
2022/11/27 10:20:27;;;;;;;3.20;1.20;;;19.60;57.90;;;;;;6223951;28;20042;-69
2022/11/27 10:23:40;;;;;;;2.13;1.10;;;19.60;58.00;;;;;;6235761;28;20098;-69
2022/11/27 10:26:46;;;;;;;2.03;1.02;;;19.60;58.00;;;;;;6207629;28;20423;-69
2022/11/27 10:29:53;;;;;;;5.90;1.15;;;19.60;58.00;;;;;;6222277;28;20274;-70
2022/11/27 10:32:57;;;;;;;4.60;0.95;;;19.60;58.00;;;;;;6205930;28;20115;-69
2022/11/27 10:35:59;;;;;;;3.47;0.82;;;19.60;58.00;;;;;;6214529;28;20022;-69
2022/11/27 10:39:01;;;;;;;3.17;1.33;;;19.60;58.00;;;;;;6215950;28;20038;-69
2022/11/27 10:42:16;;;;;;;2.58;0.90;;;19.60;58.00;;;;;;6230097;28;20322;-69
2022/11/27 10:45:26;;;;;;;2.40;1.00;;;19.60;58.00;;;;;;6220063;28;20089;-69
2022/11/27 10:48:30;;;;;;;4.97;1.60;;;19.60;58.10;;;;;;6243750;28;20249;-69
2022/11/27 10:51:34;;;;;;;5.45;1.17;;;19.60;58.10;;;;;;6222865;28;20064;-69
2022/11/27 10:54:37;;;;;;;3.08;1.00;;;19.60;58.00;;;;;;6223754;28;20084;-69
2022/11/27 10:58:10;;;;;;;3.35;1.15;;;19.60;58.00;;;;;;6244321;28;20029;-69
2022/11/27 11:01:16;;;;;;;2.95;0.95;;;19.60;58.10;;;;;;6226414;28;20041;-68
2022/11/27 11:04:25;;;;;;;2.40;0.90;;;19.60;58.10;;;;;;6220214;28;20268;-69
2022/11/27 11:07:28;;;;;;;5.95;1.10;;;19.50;58.00;;;;;;6243564;28;20025;-69
2022/11/27 11:10:31;;;;;;;5.28;1.25;;;19.50;58.00;;;;;;6242300;28;20030;-69
2022/11/27 11:13:33;;;;;;;2.65;1.10;;;19.60;58.10;;;;;;6242845;28;20033;-69
2022/11/27 11:16:42;;;;;;;3.45;1.30;;;19.50;58.00;;;;;;6233803;28;20113;-69
2022/11/27 11:19:44;;;;;;;5.55;1.33;;;19.50;58.10;;;;;;6217923;28;20085;-69
2022/11/27 11:22:46;;;;;;;3.85;1.27;;;19.50;58.00;;;;;;6230661;28;20025;-69
2022/11/27 11:25:53;;;;;;;3.63;1.25;;;19.60;58.10;;;;;;6233122;28;20029;-69
2022/11/27 11:28:57;;;;;;;3.28;1.27;;;19.60;58.10;;;;;;6217973;28;20025;-69
2022/11/27 11:32:05;;;;;;;5.45;1.63;;;19.60;58.10;;;;;;6231970;28;20025;-68
2022/11/27 11:35:23;;;;;;;6.00;1.45;;;19.60;58.10;;;;;;6239700;28;20461;-69
2022/11/27 11:38:29;;;;;;;6.05;1.30;;;19.60;58.10;;;;;;6218504;28;20039;-69
2022/11/27 11:41:37;;;;;;;4.30;1.27;;;19.50;58.00;;;;;;6232505;28;20029;-69
2022/11/27 11:44:39;;;;;;;5.07;1.20;;;19.60;58.10;;;;;;6242754;28;20021;-69
2022/11/27 11:47:48;;;;;;;4.88;1.65;;;19.50;58.00;;;;;;6219628;28;20029;-69
2022/11/27 11:51:03;;;;;;;5.93;1.88;;;19.50;58.00;;;;;;6224691;28;20014;-69
2022/11/27 11:54:21;;;;;;;6.53;2.30;;;19.50;58.00;;;;;;6219021;28;20140;-69
2022/11/27 11:57:54;;;;;;;9.32;2.28;;;19.50;58.00;;;;;;6217658;28;20037;-69
2022/11/27 12:01:13;;;;;;;9.15;2.55;;;19.50;58.10;;;;;;6224125;28;20068;-69
2022/11/27 12:04:44;;;;;;;18.05;3.83;;;19.50;58.10;;;;;;6241711;28;20030;-69
2022/11/27 12:07:48;;;;;;;14.02;4.40;;;19.50;58.10;;;;;;6221350;28;20026;-69
2022/11/27 12:10:54;;;;;;;13.85;5.10;;;19.50;58.10;;;;;;6221087;28;20021;-69
2022/11/27 12:14:16;;;;;;;11.68;4.28;;;19.50;58.10;;;;;;6241176;28;20057;-69
2022/11/27 12:17:27;;;;;;;14.45;4.93;;;19.50;58.00;;;;;;6225636;28;20512;-69
2022/11/27 12:20:43;;;;;;;19.02;6.38;;;19.50;58.00;;;;;;6217409;28;20041;-69
2022/11/27 12:24:19;;;;;;;;;;;19.50;58.10;;;;;;6240405;28;20526;-69
2022/11/27 12:27:47;;;;;;;21.58;6.10;;;19.50;58.00;;;;;;6189765;28;19909;-69
2022/11/27 12:31:25;;;;;;;21.40;6.97;;;19.50;58.00;;;;;;6217040;28;20072;-69
2022/11/27 12:34:37;;;;;;;24.10;7.43;;;19.50;58.00;;;;;;6220665;28;20018;-69
2022/11/27 12:37:57;;;;;;;31.63;8.02;;;19.60;58.10;;;;;;6217311;28;20022;-69
2022/11/27 12:41:25;;;;;;;31.00;7.50;;;19.60;58.00;;;;;;6217883;28;20037;-68
2022/11/27 12:44:52;;;;;;;32.95;9.57;;;19.70;57.90;;;;;;6221395;28;20479;-69
2022/11/27 12:48:04;;;;;;;42.42;10.70;;;19.60;57.80;;;;;;6227155;28;20029;-69
2022/11/27 12:51:30;;;;;;;31.27;9.05;;;19.70;57.80;;;;;;6217754;28;20104;-69
2022/11/27 12:54:52;;;;;;;33.55;10.07;;;19.60;57.80;;;;;;6221189;28;20085;-69
2022/11/27 12:57:59;;;;;;;36.00;9.70;;;19.60;57.90;;;;;;6232165;28;20068;-70
2022/11/27 13:01:06;;;;;;;36.92;9.80;;;19.60;58.00;;;;;;6240557;28;20037;-69
2022/11/27 13:04:26;;;;;;;32.10;9.68;;;19.60;57.90;;;;;;6216407;28;20057;-69
2022/11/27 13:08:00;;;;;;;38.22;11.02;;;19.70;57.90;;;;;;6220925;28;20105;-69
2022/11/27 13:11:07;;;;;;;32.17;10.88;;;19.70;58.10;;;;;;6214302;28;20524;-69
2022/11/27 13:14:11;;;;;;;29.05;9.15;;;19.70;58.00;;;;;;6238513;28;20033;-69
2022/11/27 13:17:16;;;;;;;35.28;10.35;;;19.70;58.00;;;;;;6233474;28;20033;-69
2022/11/27 13:20:22;;;;;;;33.42;11.52;;;19.70;57.90;;;;;;6215593;28;20107;-69
2022/11/27 13:23:22;;;;;;;32.90;10.45;;;19.70;57.90;;;;;;6215976;28;20433;-69
2022/11/27 13:26:32;;;;;;;31.27;9.15;;;19.70;58.00;;;;;;6216790;28;20029;-69
2022/11/27 13:29:41;;;;;;;26.58;9.50;;;19.70;58.20;;;;;;6236626;28;20056;-68
2022/11/27 13:32:55;;;;;;;33.55;10.20;;;19.70;58.00;;;;;;6237193;28;20032;-69
2022/11/27 13:35:56;;;;;;;28.25;11.02;;;19.70;58.00;;;;;;6216762;28;20017;-69
2022/11/27 13:39:00;;;;;;;37.08;11.65;;;19.70;57.70;;;;;;6234679;28;20064;-69
2022/11/27 13:42:11;;;;;;;27.88;10.23;;;19.80;57.80;;;;;;6239940;28;20032;-69
2022/11/27 13:45:31;;;;;;;32.22;10.57;;;19.70;57.80;;;;;;6216714;28;20026;-69
2022/11/27 13:48:39;;;;;;;28.08;9.65;;;19.70;57.80;;;;;;6230040;28;20033;-69
2022/11/27 13:51:41;;;;;;;29.38;9.65;;;19.70;58.00;;;;;;6241410;28;20416;-69
2022/11/27 13:54:59;;;;;;;24.23;9.77;;;19.70;58.00;;;;;;6218814;28;20521;-69
2022/11/27 13:58:01;;;;;;;26.10;9.80;;;19.70;58.10;;;;;;6223182;28;20032;-69
2022/11/27 14:01:23;;;;;;;26.00;9.43;;;19.70;58.20;;;;;;6216769;28;20046;-69
2022/11/27 14:04:25;;;;;;;29.10;9.00;;;19.70;58.20;;;;;;6224104;28;20476;-69
2022/11/27 14:07:36;;;;;;;28.13;9.77;;;19.70;58.20;;;;;;6218559;28;20026;-69
2022/11/27 14:10:52;;;;;;;26.38;9.45;;;19.70;58.20;;;;;;6229568;28;20344;-68
2022/11/27 14:13:53;;;;;;;22.40;9.10;;;19.60;58.20;;;;;;6223885;28;20049;-69
2022/11/27 14:17:07;;;;;;;20.95;8.38;;;19.60;58.20;;;;;;6217514;28;20084;-69
2022/11/27 14:20:23;;;;;;;22.83;9.23;;;19.70;58.20;;;;;;6221424;28;20504;-69
2022/11/27 14:23:48;;;;;;;19.30;8.10;;;19.60;58.20;;;;;;6227196;28;20508;-68
2022/11/27 14:26:49;;;;;;;24.10;8.47;;;19.60;58.30;;;;;;6212616;28;20022;-69
2022/11/27 14:29:50;;;;;;;26.40;8.75;;;19.60;58.20;;;;;;6239328;28;20121;-69
2022/11/27 14:32:51;;;;;;;28.52;9.43;;;19.60;58.20;;;;;;6223152;28;20018;-69
2022/11/27 14:35:54;;;;;;;24.23;8.02;;;19.60;58.20;;;;;;6245997;28;20033;-69
2022/11/27 14:38:55;;;;;;;24.20;8.43;;;19.60;58.20;;;;;;6222150;28;20034;-69
2022/11/27 14:42:01;;;;;;;20.52;8.00;;;19.60;58.20;;;;;;6221546;28;20032;-69
2022/11/27 14:45:11;;;;;;;19.90;7.55;;;19.60;58.20;;;;;;6238750;28;20079;-69
2022/11/27 14:48:19;;;;;;;21.60;8.30;;;19.60;58.20;;;;;;6243810;28;20025;-69
2022/11/27 14:51:29;;;;;;;20.48;7.43;;;19.60;58.20;;;;;;6220693;28;20707;-69
2022/11/27 14:54:38;;;;;;;19.48;8.23;;;19.60;58.20;;;;;;6237187;28;20124;-69
2022/11/27 14:57:39;;;;;;;17.85;7.28;;;19.60;58.20;;;;;;6226394;28;20034;-69
2022/11/27 15:01:00;;;;;;;18.23;7.45;;;19.60;58.20;;;;;;6223227;28;20508;-69
2022/11/27 15:04:04;;;;;;;21.00;6.60;;;19.60;58.30;;;;;;6227635;28;20037;-69
2022/11/27 15:07:26;;;;;;;15.70;6.88;;;19.60;58.30;;;;;;6244943;28;20025;-69
2022/11/27 15:10:39;;;;;;;17.92;7.00;;;19.60;58.30;;;;;;6235577;28;20021;-69
2022/11/27 15:13:40;;;;;;;16.25;6.40;;;19.60;58.30;;;;;;6240213;28;20458;-69
2022/11/27 15:16:46;;;;;;;16.20;6.35;;;19.60;58.30;;;;;;6218363;28;20057;-70
2022/11/27 15:19:47;;;;;;;13.00;5.40;;;19.60;58.30;;;;;;6220791;28;20018;-69
2022/11/27 15:22:50;;;;;;;16.35;6.50;;;19.60;58.30;;;;;;6227155;28;20030;-69
2022/11/27 15:26:05;;;;;;;15.43;6.78;;;19.60;58.30;;;;;;6213604;28;20603;-69
2022/11/27 15:29:31;;;;;;;16.27;6.40;;;19.60;58.30;;;;;;6221913;28;20021;-69
2022/11/27 15:32:45;;;;;;;;;;;19.60;58.30;;;;;;6237611;28;20337;-69
2022/11/27 15:35:46;;;;;;;17.98;6.70;;;19.60;58.30;;;;;;6218371;28;19909;-69
2022/11/27 15:38:49;;;;;;;16.38;6.30;;;19.60;58.30;;;;;;6218339;28;20037;-69
2022/11/27 15:41:59;;;;;;;15.48;6.40;;;19.60;58.30;;;;;;6226301;28;20480;-69
2022/11/27 15:44:59;;;;;;;17.95;6.55;;;19.60;58.30;;;;;;6217913;28;20149;-69
2022/11/27 15:48:01;;;;;;;15.30;6.43;;;19.60;58.30;;;;;;6217825;28;20030;-69
2022/11/27 15:51:01;;;;;;;15.98;6.15;;;19.60;58.30;;;;;;6217287;28;20567;-69
2022/11/27 15:54:02;;;;;;;17.42;6.95;;;19.60;58.30;;;;;;6217939;28;20058;-69
2022/11/27 15:57:03;;;;;;;17.58;7.07;;;19.60;58.30;;;;;;6217388;28;20022;-69
2022/11/27 16:00:06;;;;;;;21.35;7.80;;;19.60;58.30;;;;;;6215780;28;20065;-69
2022/11/27 16:03:07;;;;;;;16.20;7.00;;;19.60;58.30;;;;;;6216449;28;20048;-69
2022/11/27 16:06:08;;;;;;;19.08;7.35;;;19.60;58.30;;;;;;6232422;28;20029;-69